EGDR

Details ICAO EGDR
Name RNAS Culdrose
Region United Kingdom
Timezone Europe/London (UTC+0.0)
Plans Departing 15
Arriving 12
Stats Elevation 267 ft / 81 m (AMSL)
Location 50.086000° -5.254167°
Runways 3
Magnetic Variation 2.088° W
Sunrise 2017-12-16 08:15:35 UTC / 2017-12-16 08:15:35 Local
Sunset 2017-12-16 16:20:30 UTC / 2017-12-16 16:20:30 Local
Advertisement - Login to hide

Runways

ID Width Length Bearing (true) Bearing (mag) Surface Threshold Offset Overrun Length
07 141 ft / 43 m 3,424 ft / 1,044 m 62.86° 64.95° Asphalt 0 ft / 0 m 0 ft / 0 m
12 148 ft / 45 m 6,006 ft / 1,831 m 112.85° 114.94° Asphalt 0 ft / 0 m 115 ft / 35 m
18 141 ft / 43 m 3,465 ft / 1,056 m 178.54° 180.63° Asphalt 0 ft / 0 m 0 ft / 0 m
25 141 ft / 43 m 3,424 ft / 1,044 m 242.87° 244.96° Asphalt 0 ft / 0 m 0 ft / 0 m
30 148 ft / 45 m 6,006 ft / 1,831 m 292.87° 294.96° Asphalt 0 ft / 0 m 141 ft / 43 m
36 141 ft / 43 m 3,465 ft / 1,056 m 358.54° 0.63° Asphalt 0 ft / 0 m 0 ft / 0 m

Map

Weather


0- 5 10 15 20 25 30 35+ Temperature / ° C

Clouds and Precipitation
Forecast for 2017-12-16 18:00 UTC. Updated 2 hours ago

Ground ~20,000 ft ~40,000 ft Winds

METAR

EGDR 161750Z AUTO 30014KT 9999 // FEW023/// BKN029/// 08/06 Q1025

TAF

Not found

Frequencies

Ground 122.10 MHz GND
Tower 123.30 MHz TWR
Tower 122.10 MHz TWR
Approach 134.05 MHz APP
Warning: Do not use this data for real-world aviation or navigation. No guarantee of current accuracy is given.